Thunder radar more information blitzortung!


Radar de pluja more information rain snow radar


Visita la nostra xarxa de llocs de meteo:

Template documentation
and downloads

And another site



No particular awareness of the weather is required.    There are no Weather-warnings

Pagina Historial Weather Underground text

Diari Resum May 14, 2017 Unitats:  Tant    Imperial   Mètric
« Previous Dia
SegĂźent Dia »
Diari Setmana Mensual Anual Personalitzada
  Maxima: Minima: Media:
Temperatura: 76.3 °F /  24.6 °C 56.8 °F /  13.8 °C 69.1 °F /  20.6 °C
Punt de rosada: 54 °F /  12.2 °C 45.7 °F /  7.6 °C 50.7 °F /  10.4 °C
Humitat: 73 % 42 % 53 %
Wind Speed: 15 mph /  24.1 km/h - 4.6 mph /  7.4 km/h
RĂ fegues de vent: 15 mph /  24.1 km/h - -
Vent:- - ESE
Pression baro: 30.3 in /  1027.0 hPa 30.1 in /  1018.8 hPa -
Precipitacions: 0 in /  0.0 mm    
Historical Graphs
 
 
Dades de taula per May 14, 2017
Temps Temperatura Punt de rosada Pression baro Vent Wind Speed RĂ fegues de vent Humitat Rainfall Rate (Hourly)
00:02 63.1 °F /  17.3 °C 45.7 °F /  7.6 °C 30.1 in /  1018.8 hPa West 2.3 mph /  3.7 km/h 2.3 mph /  3.7 km/h 53 % 0 in /  0.0 mm
00:07 63.1 °F /  17.3 °C 45.7 °F /  7.6 °C 30.1 in /  1018.8 hPa WNW 2.3 mph /  3.7 km/h 2.3 mph /  3.7 km/h 53 % 0 in /  0.0 mm
03:15 63 °F /  17.2 °C 51.1 °F /  10.6 °C 30.2 in /  1021.9 hPa SE 1 mph /  1.6 km/h 2 mph /  3.2 km/h 65 % 0 in /  0.0 mm
03:25 62.4 °F /  16.9 °C 50.2 °F /  10.1 °C 30.2 in /  1021.9 hPa NE 3 mph /  4.8 km/h 3 mph /  4.8 km/h 64 % 0 in /  0.0 mm
03:35 62.6 °F /  17.0 °C 50.2 °F /  10.1 °C 30.2 in /  1021.9 hPa NE 1 mph /  1.6 km/h 3 mph /  4.8 km/h 64 % 0 in /  0.0 mm
03:45 62.8 °F /  17.1 °C 50 °F /  10.0 °C 30.2 in /  1021.9 hPa NNE 2 mph /  3.2 km/h 3 mph /  4.8 km/h 63 % 0 in /  0.0 mm
03:55 64.8 °F /  18.2 °C 52 °F /  11.1 °C 30.2 in /  1021.9 hPa Calm   3 mph /  4.8 km/h 63 % 0 in /  0.0 mm
04:05 64.9 °F /  18.3 °C 51.3 °F /  10.7 °C 30.2 in /  1021.9 hPa NE 2 mph /  3.2 km/h 2 mph /  3.2 km/h 61 % 0 in /  0.0 mm
04:15 65.1 °F /  18.4 °C 51.3 °F /  10.7 °C 30.2 in /  1021.9 hPa NE 2 mph /  3.2 km/h 3 mph /  4.8 km/h 61 % 0 in /  0.0 mm
04:25 66.9 °F /  19.4 °C 52.2 °F /  11.2 °C 30.2 in /  1022.9 hPa NNE 2 mph /  3.2 km/h 3 mph /  4.8 km/h 59 % 0 in /  0.0 mm
04:35 65.8 °F /  18.8 °C 51.6 °F /  10.9 °C 30.2 in /  1022.9 hPa NNE 3 mph /  4.8 km/h 4 mph /  6.4 km/h 60 % 0 in /  0.0 mm
04:45 67.8 °F /  19.9 °C 53.1 °F /  11.7 °C 30.2 in /  1022.9 hPa NE 1 mph /  1.6 km/h 4 mph /  6.4 km/h 59 % 0 in /  0.0 mm
04:55 69.1 °F /  20.6 °C 53.8 °F /  12.1 °C 30.2 in /  1022.9 hPa NE 1 mph /  1.6 km/h 3 mph /  4.8 km/h 58 % 0 in /  0.0 mm
05:05 69.6 °F /  20.9 °C 53.2 °F /  11.8 °C 30.2 in /  1022.9 hPa NE 2 mph /  3.2 km/h 5 mph /  8.0 km/h 56 % 0 in /  0.0 mm
05:15 69.1 °F /  20.6 °C 52.7 °F /  11.5 °C 30.2 in /  1022.9 hPa NE 1 mph /  1.6 km/h 3 mph /  4.8 km/h 56 % 0 in /  0.0 mm
05:25 69.6 °F /  20.9 °C 52.7 °F /  11.5 °C 30.2 in /  1022.9 hPa NE 3 mph /  4.8 km/h 4 mph /  6.4 km/h 55 % 0 in /  0.0 mm
05:35 71.4 °F /  21.9 °C 54 °F /  12.2 °C 30.2 in /  1023.9 hPa East 1 mph /  1.6 km/h 2 mph /  3.2 km/h 54 % 0 in /  0.0 mm
05:45 71.4 °F /  21.9 °C 53.4 °F /  11.9 °C 30.2 in /  1023.9 hPa ESE 1 mph /  1.6 km/h 4 mph /  6.4 km/h 53 % 0 in /  0.0 mm
05:55 71.8 °F /  22.1 °C 53.2 °F /  11.8 °C 30.2 in /  1023.9 hPa East 3 mph /  4.8 km/h 4 mph /  6.4 km/h 52 % 0 in /  0.0 mm
06:05 71.4 °F /  21.9 °C 52.9 °F /  11.6 °C 30.2 in /  1022.9 hPa ESE 2 mph /  3.2 km/h 4 mph /  6.4 km/h 52 % 0 in /  0.0 mm
06:15 71.2 °F /  21.8 °C 52.7 °F /  11.5 °C 30.2 in /  1022.9 hPa East 3 mph /  4.8 km/h 4 mph /  6.4 km/h 52 % 0 in /  0.0 mm
06:25 72 °F /  22.2 °C 53.4 °F /  11.9 °C 30.2 in /  1023.9 hPa ENE 3 mph /  4.8 km/h 4 mph /  6.4 km/h 52 % 0 in /  0.0 mm
06:35 73 °F /  22.8 °C 53.8 °F /  12.1 °C 30.2 in /  1023.9 hPa ESE 3 mph /  4.8 km/h 4 mph /  6.4 km/h 51 % 0 in /  0.0 mm
06:45 73 °F /  22.8 °C 53.2 °F /  11.8 °C 30.2 in /  1023.9 hPa ESE 1 mph /  1.6 km/h 6 mph /  9.7 km/h 50 % 0 in /  0.0 mm
06:55 73.6 °F /  23.1 °C 52.7 °F /  11.5 °C 30.2 in /  1023.9 hPa East 5 mph /  8.0 km/h 5 mph /  8.0 km/h 48 % 0 in /  0.0 mm
07:05 74.5 °F /  23.6 °C 53.4 °F /  11.9 °C 30.2 in /  1023.9 hPa SE 3 mph /  4.8 km/h 5 mph /  8.0 km/h 48 % 0 in /  0.0 mm
07:15 74.5 °F /  23.6 °C 53.4 °F /  11.9 °C 30.2 in /  1023.9 hPa SE 2 mph /  3.2 km/h 5 mph /  8.0 km/h 48 % 0 in /  0.0 mm
07:25 73.8 °F /  23.2 °C 52.3 °F /  11.3 °C 30.2 in /  1022.9 hPa ESE 6 mph /  9.7 km/h 8 mph /  12.9 km/h 47 % 0 in /  0.0 mm
12:33 74.5 °F /  23.6 °C 52.9 °F /  11.6 °C 30.2 in /  1023.9 hPa West 5.8 mph /  9.3 km/h 5.8 mph /  9.3 km/h 47 % 0 in /  0.0 mm
12:38 74.7 °F /  23.7 °C 52.5 °F /  11.4 °C 30.2 in /  1023.9 hPa ENE 5.8 mph /  9.3 km/h 5.8 mph /  9.3 km/h 46 % 0 in /  0.0 mm
12:43 74.7 °F /  23.7 °C 52.5 °F /  11.4 °C 30.2 in /  1023.9 hPa NE 9.2 mph /  14.8 km/h 9.2 mph /  14.8 km/h 46 % 0 in /  0.0 mm
12:48 74.1 °F /  23.4 °C 51.4 °F /  10.8 °C 30.2 in /  1023.9 hPa SSE 6.9 mph /  11.1 km/h 6.9 mph /  11.1 km/h 45 % 0 in /  0.0 mm
12:53 74.8 °F /  23.8 °C 52.7 °F /  11.5 °C 30.2 in /  1023.9 hPa SSE 6 mph /  9.7 km/h 6 mph /  9.7 km/h 46 % 0 in /  0.0 mm
12:58 74.7 °F /  23.7 °C 52 °F /  11.1 °C 30.2 in /  1023.9 hPa ESE 9.2 mph /  14.8 km/h 9.2 mph /  14.8 km/h 45 % 0 in /  0.0 mm
13:03 75 °F /  23.9 °C 52.2 °F /  11.2 °C 30.2 in /  1023.9 hPa SE 4.6 mph /  7.4 km/h 4.6 mph /  7.4 km/h 45 % 0 in /  0.0 mm
13:08 75.6 °F /  24.2 °C 52.2 °F /  11.2 °C 30.2 in /  1023.9 hPa South 5.8 mph /  9.3 km/h 5.8 mph /  9.3 km/h 44 % 0 in /  0.0 mm
13:13 76.3 °F /  24.6 °C 52.9 °F /  11.6 °C 30.2 in /  1023.9 hPa SE 8.1 mph /  13.0 km/h 8.1 mph /  13.0 km/h 44 % 0 in /  0.0 mm
13:18 74.8 °F /  23.8 °C 52.2 °F /  11.2 °C 30.2 in /  1023.9 hPa ESE 7.4 mph /  11.9 km/h 7.4 mph /  11.9 km/h 45 % 0 in /  0.0 mm
13:23 74.1 °F /  23.4 °C 51.4 °F /  10.8 °C 30.2 in /  1023.9 hPa South 6.9 mph /  11.1 km/h 6.9 mph /  11.1 km/h 45 % 0 in /  0.0 mm
13:28 74.5 °F /  23.6 °C 51.6 °F /  10.9 °C 30.2 in /  1023.9 hPa ESE 6.9 mph /  11.1 km/h 6.9 mph /  11.1 km/h 45 % 0 in /  0.0 mm
13:33 74.7 °F /  23.7 °C 52 °F /  11.1 °C 30.2 in /  1023.9 hPa ESE 12.8 mph /  20.6 km/h 12.8 mph /  20.6 km/h 45 % 0 in /  0.0 mm
13:38 74.3 °F /  23.5 °C 51.6 °F /  10.9 °C 30.2 in /  1023.9 hPa ESE 11.5 mph /  18.5 km/h 11.5 mph /  18.5 km/h 45 % 0 in /  0.0 mm
13:43 73.9 °F /  23.3 °C 51.3 °F /  10.7 °C 30.2 in /  1023.9 hPa SE 13.8 mph /  22.2 km/h 13.8 mph /  22.2 km/h 45 % 0 in /  0.0 mm
13:48 74.1 °F /  23.4 °C 51.4 °F /  10.8 °C 30.2 in /  1023.9 hPa ESE 11.2 mph /  18.0 km/h 11.2 mph /  18.0 km/h 45 % 0 in /  0.0 mm
13:53 74.7 °F /  23.7 °C 52 °F /  11.1 °C 30.2 in /  1023.9 hPa ESE 8.1 mph /  13.0 km/h 8.1 mph /  13.0 km/h 45 % 0 in /  0.0 mm
13:58 75 °F /  23.9 °C 52.2 °F /  11.2 °C 30.2 in /  1023.9 hPa ESE 8.7 mph /  14.0 km/h 8.7 mph /  14.0 km/h 45 % 0 in /  0.0 mm
14:03 74.5 °F /  23.6 °C 52.3 °F /  11.3 °C 30.2 in /  1023.9 hPa NNE 6.4 mph /  10.3 km/h 6.4 mph /  10.3 km/h 46 % 0 in /  0.0 mm
14:08 73.4 °F /  23.0 °C 50.7 °F /  10.4 °C 30.2 in /  1023.9 hPa ESE 9.2 mph /  14.8 km/h 9.2 mph /  14.8 km/h 45 % 0 in /  0.0 mm
14:13 73.4 °F /  23.0 °C 51.4 °F /  10.8 °C 30.2 in /  1023.9 hPa ESE 9.2 mph /  14.8 km/h 9.2 mph /  14.8 km/h 46 % 0 in /  0.0 mm
14:18 73.9 °F /  23.3 °C 51.8 °F /  11.0 °C 30.2 in /  1023.9 hPa ENE 8.1 mph /  13.0 km/h 8.1 mph /  13.0 km/h 46 % 0 in /  0.0 mm
14:23 73.9 °F /  23.3 °C 51.8 °F /  11.0 °C 30.2 in /  1023.9 hPa SSW 9.2 mph /  14.8 km/h 9.2 mph /  14.8 km/h 46 % 0 in /  0.0 mm
14:28 73.8 °F /  23.2 °C 51.6 °F /  10.9 °C 30.2 in /  1023.9 hPa ESE 8.1 mph /  13.0 km/h 8.1 mph /  13.0 km/h 46 % 0 in /  0.0 mm
14:33 73.8 °F /  23.2 °C 51.6 °F /  10.9 °C 30.2 in /  1023.9 hPa SE 10 mph /  16.1 km/h 10 mph /  16.1 km/h 46 % 0 in /  0.0 mm
14:38 73.8 °F /  23.2 °C 51.6 °F /  10.9 °C 30.2 in /  1023.9 hPa ESE 5.8 mph /  9.3 km/h 5.8 mph /  9.3 km/h 46 % 0 in /  0.0 mm
14:43 73.6 °F /  23.1 °C 51.4 °F /  10.8 °C 30.2 in /  1023.9 hPa ESE 8.1 mph /  13.0 km/h 8.1 mph /  13.0 km/h 46 % 0 in /  0.0 mm
14:48 73.6 °F /  23.1 °C 51.4 °F /  10.8 °C 30.2 in /  1023.9 hPa SE 6 mph /  9.7 km/h 6 mph /  9.7 km/h 46 % 0 in /  0.0 mm
14:53 73.2 °F /  22.9 °C 51.3 °F /  10.7 °C 30.2 in /  1023.9 hPa NE 5.8 mph /  9.3 km/h 5.8 mph /  9.3 km/h 46 % 0 in /  0.0 mm
14:58 72.9 °F /  22.7 °C 50.9 °F /  10.5 °C 30.2 in /  1023.9 hPa ESE 9.2 mph /  14.8 km/h 9.2 mph /  14.8 km/h 46 % 0 in /  0.0 mm
15:03 72.9 °F /  22.7 °C 51.4 °F /  10.8 °C 30.2 in /  1023.9 hPa NE 8.1 mph /  13.0 km/h 8.1 mph /  13.0 km/h 47 % 0 in /  0.0 mm
15:08 73.2 °F /  22.9 °C 51.3 °F /  10.7 °C 30.2 in /  1023.9 hPa SE 8.1 mph /  13.0 km/h 8.1 mph /  13.0 km/h 46 % 0 in /  0.0 mm
15:13 73 °F /  22.8 °C 51.1 °F /  10.6 °C 30.2 in /  1023.9 hPa SE 8.1 mph /  13.0 km/h 8.1 mph /  13.0 km/h 46 % 0 in /  0.0 mm
15:18 73.4 °F /  23.0 °C 50.7 °F /  10.4 °C 30.2 in /  1023.9 hPa ENE 8.1 mph /  13.0 km/h 8.1 mph /  13.0 km/h 45 % 0 in /  0.0 mm
15:23 73.8 °F /  23.2 °C 51.1 °F /  10.6 °C 30.2 in /  1023.9 hPa ENE 10.4 mph /  16.7 km/h 10.4 mph /  16.7 km/h 45 % 0 in /  0.0 mm
15:28 74.1 °F /  23.4 °C 52 °F /  11.1 °C 30.2 in /  1022.9 hPa ENE 9.2 mph /  14.8 km/h 9.2 mph /  14.8 km/h 46 % 0 in /  0.0 mm
15:33 74.3 °F /  23.5 °C 52.2 °F /  11.2 °C 30.2 in /  1022.9 hPa ENE 6.9 mph /  11.1 km/h 6.9 mph /  11.1 km/h 46 % 0 in /  0.0 mm
15:38 73.9 °F /  23.3 °C 51.3 °F /  10.7 °C 30.2 in /  1022.9 hPa ESE 9.2 mph /  14.8 km/h 9.2 mph /  14.8 km/h 45 % 0 in /  0.0 mm
15:43 73.8 °F /  23.2 °C 50.5 °F /  10.3 °C 30.2 in /  1022.9 hPa ESE 10.4 mph /  16.7 km/h 10.4 mph /  16.7 km/h 44 % 0 in /  0.0 mm
15:48 74.3 °F /  23.5 °C 51.1 °F /  10.6 °C 30.2 in /  1022.9 hPa East 7.1 mph /  11.4 km/h 7.1 mph /  11.4 km/h 44 % 0 in /  0.0 mm
15:53 74.7 °F /  23.7 °C 51.3 °F /  10.7 °C 30.2 in /  1022.9 hPa East 7.8 mph /  12.6 km/h 7.8 mph /  12.6 km/h 44 % 0 in /  0.0 mm
15:58 74.7 °F /  23.7 °C 51.3 °F /  10.7 °C 30.2 in /  1022.9 hPa ESE 8.1 mph /  13.0 km/h 8.1 mph /  13.0 km/h 44 % 0 in /  0.0 mm
16:03 74.5 °F /  23.6 °C 51.1 °F /  10.6 °C 30.2 in /  1022.9 hPa NE 8.1 mph /  13.0 km/h 8.1 mph /  13.0 km/h 44 % 0 in /  0.0 mm
16:08 74.7 °F /  23.7 °C 50.7 °F /  10.4 °C 30.2 in /  1022.9 hPa ESE 8.1 mph /  13.0 km/h 8.1 mph /  13.0 km/h 43 % 0 in /  0.0 mm
16:13 74.8 °F /  23.8 °C 50.7 °F /  10.4 °C 30.2 in /  1022.9 hPa SSE 6.2 mph /  10.0 km/h 6.2 mph /  10.0 km/h 43 % 0 in /  0.0 mm
16:18 75.4 °F /  24.1 °C 52 °F /  11.1 °C 30.2 in /  1022.9 hPa ESE 6.2 mph /  10.0 km/h 6.2 mph /  10.0 km/h 44 % 0 in /  0.0 mm
16:23 75.4 °F /  24.1 °C 51.3 °F /  10.7 °C 30.2 in /  1022.9 hPa East 9.2 mph /  14.8 km/h 9.2 mph /  14.8 km/h 43 % 0 in /  0.0 mm
16:28 75.4 °F /  24.1 °C 51.3 °F /  10.7 °C 30.2 in /  1022.9 hPa East 8.7 mph /  14.0 km/h 8.7 mph /  14.0 km/h 43 % 0 in /  0.0 mm
16:33 75 °F /  23.9 °C 51.1 °F /  10.6 °C 30.2 in /  1022.9 hPa ENE 10.4 mph /  16.7 km/h 10.4 mph /  16.7 km/h 43 % 0 in /  0.0 mm
16:38 75.2 °F /  24.0 °C 51.8 °F /  11.0 °C 30.2 in /  1022.9 hPa ENE 6.9 mph /  11.1 km/h 6.9 mph /  11.1 km/h 44 % 0 in /  0.0 mm
16:43 74.7 °F /  23.7 °C 50.7 °F /  10.4 °C 30.2 in /  1022.9 hPa ENE 11.5 mph /  18.5 km/h 11.5 mph /  18.5 km/h 43 % 0 in /  0.0 mm
16:48 75.2 °F /  24.0 °C 51.3 °F /  10.7 °C 30.2 in /  1022.9 hPa South 5.8 mph /  9.3 km/h 5.8 mph /  9.3 km/h 43 % 0 in /  0.0 mm
16:53 75.2 °F /  24.0 °C 51.3 °F /  10.7 °C 30.2 in /  1022.9 hPa ENE 9.2 mph /  14.8 km/h 9.2 mph /  14.8 km/h 43 % 0 in /  0.0 mm
16:58 75.2 °F /  24.0 °C 51.3 °F /  10.7 °C 30.2 in /  1021.9 hPa ESE 10.2 mph /  16.4 km/h 10.2 mph /  16.4 km/h 43 % 0 in /  0.0 mm
17:03 75 °F /  23.9 °C 51.1 °F /  10.6 °C 30.2 in /  1021.9 hPa ESE 15 mph /  24.1 km/h 15 mph /  24.1 km/h 43 % 0 in /  0.0 mm
17:08 75 °F /  23.9 °C 51.1 °F /  10.6 °C 30.2 in /  1021.9 hPa ESE 10.4 mph /  16.7 km/h 10.4 mph /  16.7 km/h 43 % 0 in /  0.0 mm
17:13 74.8 °F /  23.8 °C 50.2 °F /  10.1 °C 30.2 in /  1021.9 hPa ENE 11.5 mph /  18.5 km/h 11.5 mph /  18.5 km/h 42 % 0 in /  0.0 mm
17:18 74.8 °F /  23.8 °C 50.7 °F /  10.4 °C 30.2 in /  1021.9 hPa ESE 6.9 mph /  11.1 km/h 6.9 mph /  11.1 km/h 43 % 0 in /  0.0 mm
17:23 74.7 °F /  23.7 °C 50 °F /  10.0 °C 30.2 in /  1021.9 hPa ENE 9.2 mph /  14.8 km/h 9.2 mph /  14.8 km/h 42 % 0 in /  0.0 mm
17:28 74.7 °F /  23.7 °C 50.7 °F /  10.4 °C 30.2 in /  1021.9 hPa ESE 9.2 mph /  14.8 km/h 9.2 mph /  14.8 km/h 43 % 0 in /  0.0 mm
17:33 74.7 °F /  23.7 °C 50.7 °F /  10.4 °C 30.2 in /  1021.9 hPa ESE 6.9 mph /  11.1 km/h 6.9 mph /  11.1 km/h 43 % 0 in /  0.0 mm
17:38 74.7 °F /  23.7 °C 50 °F /  10.0 °C 30.2 in /  1021.9 hPa East 8.1 mph /  13.0 km/h 8.1 mph /  13.0 km/h 42 % 0 in /  0.0 mm
17:43 74.3 °F /  23.5 °C 49.6 °F /  9.8 °C 30.2 in /  1022.9 hPa ESE 11.5 mph /  18.5 km/h 11.5 mph /  18.5 km/h 42 % 0 in /  0.0 mm
17:48 74.1 °F /  23.4 °C 50.2 °F /  10.1 °C 30.2 in /  1022.9 hPa ENE 9.2 mph /  14.8 km/h 9.2 mph /  14.8 km/h 43 % 0 in /  0.0 mm
17:53 74.3 °F /  23.5 °C 50.4 °F /  10.2 °C 30.2 in /  1022.9 hPa ESE 9.2 mph /  14.8 km/h 9.2 mph /  14.8 km/h 43 % 0 in /  0.0 mm
17:58 73.9 °F /  23.3 °C 50 °F /  10.0 °C 30.2 in /  1022.9 hPa ESE 9.8 mph /  15.8 km/h 9.8 mph /  15.8 km/h 43 % 0 in /  0.0 mm
18:03 73.8 °F /  23.2 °C 49.8 °F /  9.9 °C 30.2 in /  1022.9 hPa ESE 8.1 mph /  13.0 km/h 8.1 mph /  13.0 km/h 43 % 0 in /  0.0 mm
18:08 73.4 °F /  23.0 °C 49.5 °F /  9.7 °C 30.2 in /  1022.9 hPa ESE 10.4 mph /  16.7 km/h 10.4 mph /  16.7 km/h 43 % 0 in /  0.0 mm
18:13 73 °F /  22.8 °C 49.8 °F /  9.9 °C 30.2 in /  1021.9 hPa SSE 12.7 mph /  20.4 km/h 12.7 mph /  20.4 km/h 44 % 0 in /  0.0 mm
18:18 72.9 °F /  22.7 °C 50.4 °F /  10.2 °C 30.2 in /  1021.9 hPa East 10.4 mph /  16.7 km/h 10.4 mph /  16.7 km/h 45 % 0 in /  0.0 mm
18:23 72.9 °F /  22.7 °C 49.6 °F /  9.8 °C 30.2 in /  1021.9 hPa NE 6.2 mph /  10.0 km/h 6.2 mph /  10.0 km/h 44 % 0 in /  0.0 mm
18:28 72.9 °F /  22.7 °C 50.4 °F /  10.2 °C 30.2 in /  1022.9 hPa ESE 8.1 mph /  13.0 km/h 8.1 mph /  13.0 km/h 45 % 0 in /  0.0 mm
18:33 72.1 °F /  22.3 °C 49.6 °F /  9.8 °C 30.2 in /  1022.9 hPa SE 10.4 mph /  16.7 km/h 10.4 mph /  16.7 km/h 45 % 0 in /  0.0 mm
18:38 72.1 °F /  22.3 °C 50.2 °F /  10.1 °C 30.2 in /  1022.9 hPa ESE 8.1 mph /  13.0 km/h 8.1 mph /  13.0 km/h 46 % 0 in /  0.0 mm
18:43 72.1 °F /  22.3 °C 49.6 °F /  9.8 °C 30.2 in /  1021.9 hPa ENE 6.9 mph /  11.1 km/h 6.9 mph /  11.1 km/h 45 % 0 in /  0.0 mm
18:48 72 °F /  22.2 °C 50 °F /  10.0 °C 30.2 in /  1021.9 hPa ESE 9.2 mph /  14.8 km/h 9.2 mph /  14.8 km/h 46 % 0 in /  0.0 mm
18:53 72 °F /  22.2 °C 50 °F /  10.0 °C 30.2 in /  1021.9 hPa ESE 9.2 mph /  14.8 km/h 9.2 mph /  14.8 km/h 46 % 0 in /  0.0 mm
18:58 71.8 °F /  22.1 °C 50.5 °F /  10.3 °C 30.2 in /  1022.9 hPa ESE 9.2 mph /  14.8 km/h 9.2 mph /  14.8 km/h 47 % 0 in /  0.0 mm
19:03 71.6 °F /  22.0 °C 50.4 °F /  10.2 °C 30.2 in /  1022.9 hPa East 5.8 mph /  9.3 km/h 5.8 mph /  9.3 km/h 47 % 0 in /  0.0 mm
19:08 71.2 °F /  21.8 °C 50.5 °F /  10.3 °C 30.2 in /  1022.9 hPa East 5.8 mph /  9.3 km/h 5.8 mph /  9.3 km/h 48 % 0 in /  0.0 mm
19:13 71.2 °F /  21.8 °C 50.5 °F /  10.3 °C 30.2 in /  1022.9 hPa ENE 4.6 mph /  7.4 km/h 4.6 mph /  7.4 km/h 48 % 0 in /  0.0 mm
19:15 62.6 °F /  17.0 °C 50.2 °F /  10.1 °C 30.3 in /  1026.0 hPa Calm   1 mph /  1.6 km/h 64 % 0 in /  0.0 mm
19:18 71.2 °F /  21.8 °C 50.5 °F /  10.3 °C 30.2 in /  1022.9 hPa ENE 4.6 mph /  7.4 km/h 4.6 mph /  7.4 km/h 48 % 0 in /  0.0 mm
19:23 71.4 °F /  21.9 °C 50.7 °F /  10.4 °C 30.2 in /  1022.9 hPa ENE 5.8 mph /  9.3 km/h 5.8 mph /  9.3 km/h 48 % 0 in /  0.0 mm
19:25 62.2 °F /  16.8 °C 50.4 °F /  10.2 °C 30.3 in /  1026.0 hPa Calm     65 % 0 in /  0.0 mm
19:28 71.4 °F /  21.9 °C 50.7 °F /  10.4 °C 30.2 in /  1022.9 hPa East 3.5 mph /  5.6 km/h 3.5 mph /  5.6 km/h 48 % 0 in /  0.0 mm
19:33 71.2 °F /  21.8 °C 50.5 °F /  10.3 °C 30.2 in /  1022.9 hPa East 4.6 mph /  7.4 km/h 4.6 mph /  7.4 km/h 48 % 0 in /  0.0 mm
19:35 62.1 °F /  16.7 °C 50.5 °F /  10.3 °C 30.3 in /  1026.0 hPa Calm     66 % 0 in /  0.0 mm
19:38 71.1 °F /  21.7 °C 50.4 °F /  10.2 °C 30.2 in /  1022.9 hPa ESE 6 mph /  9.7 km/h 6 mph /  9.7 km/h 48 % 0 in /  0.0 mm
19:43 71.2 °F /  21.8 °C 50.5 °F /  10.3 °C 30.2 in /  1022.9 hPa ESE 3.5 mph /  5.6 km/h 3.8 mph /  6.1 km/h 48 % 0 in /  0.0 mm
19:45 61.5 °F /  16.4 °C 50.2 °F /  10.1 °C 30.3 in /  1026.0 hPa Calm     66 % 0 in /  0.0 mm
19:48 71.1 °F /  21.7 °C 50.4 °F /  10.2 °C 30.2 in /  1022.9 hPa ENE 3.5 mph /  5.6 km/h 3.5 mph /  5.6 km/h 48 % 0 in /  0.0 mm
19:49 71.1 °F /  21.7 °C 50.4 °F /  10.2 °C 30.2 in /  1022.9 hPa ENE 3.5 mph /  5.6 km/h 3.5 mph /  5.6 km/h 48 % 0 in /  0.0 mm
19:54 70.9 °F /  21.6 °C 50.2 °F /  10.1 °C 30.2 in /  1022.9 hPa ESE 4.6 mph /  7.4 km/h 4.6 mph /  7.4 km/h 48 % 0 in /  0.0 mm
19:55 61.3 °F /  16.3 °C 50.4 °F /  10.2 °C 30.3 in /  1026.0 hPa Calm     67 % 0 in /  0.0 mm
19:59 70.9 °F /  21.6 °C 50.7 °F /  10.4 °C 30.2 in /  1022.9 hPa East 4.6 mph /  7.4 km/h 4.6 mph /  7.4 km/h 49 % 0 in /  0.0 mm
20:04 70.7 °F /  21.5 °C 50 °F /  10.0 °C 30.2 in /  1022.9 hPa ESE 4.6 mph /  7.4 km/h 4.6 mph /  7.4 km/h 48 % 0 in /  0.0 mm
20:05 61.2 °F /  16.2 °C 50.2 °F /  10.1 °C 30.3 in /  1026.0 hPa NW 1 mph /  1.6 km/h 2 mph /  3.2 km/h 67 % 0 in /  0.0 mm
20:09 70.7 °F /  21.5 °C 50 °F /  10.0 °C 30.2 in /  1022.9 hPa East 3.5 mph /  5.6 km/h 3.6 mph /  5.8 km/h 48 % 0 in /  0.0 mm
20:14 70.3 °F /  21.3 °C 50.4 °F /  10.2 °C 30.2 in /  1022.9 hPa NE 3.5 mph /  5.6 km/h 3.5 mph /  5.6 km/h 49 % 0 in /  0.0 mm
20:15 61 °F /  16.1 °C 50.4 °F /  10.2 °C 30.3 in /  1024.9 hPa Calm   2 mph /  3.2 km/h 68 % 0 in /  0.0 mm
20:19 70.2 °F /  21.2 °C 50.2 °F /  10.1 °C 30.2 in /  1022.9 hPa ENE 4.6 mph /  7.4 km/h 4.6 mph /  7.4 km/h 49 % 0 in /  0.0 mm
20:24 69.8 °F /  21.0 °C 49.8 °F /  9.9 °C 30.2 in /  1022.9 hPa ESE 4.6 mph /  7.4 km/h 4.6 mph /  7.4 km/h 49 % 0 in /  0.0 mm
20:25 61 °F /  16.1 °C 50.4 °F /  10.2 °C 30.3 in /  1026.0 hPa Calm     68 % 0 in /  0.0 mm
20:29 69.6 °F /  20.9 °C 50.2 °F /  10.1 °C 30.2 in /  1023.9 hPa SE 3.5 mph /  5.6 km/h 4 mph /  6.4 km/h 50 % 0 in /  0.0 mm
20:34 69.4 °F /  20.8 °C 50 °F /  10.0 °C 30.2 in /  1023.9 hPa ESE 4.6 mph /  7.4 km/h 4.6 mph /  7.4 km/h 50 % 0 in /  0.0 mm
20:35 60.8 °F /  16.0 °C 50.2 °F /  10.1 °C 30.3 in /  1026.0 hPa WNW 1 mph /  1.6 km/h 2 mph /  3.2 km/h 68 % 0 in /  0.0 mm
20:39 69.3 °F /  20.7 °C 49.8 °F /  9.9 °C 30.2 in /  1023.9 hPa ESE 4.6 mph /  7.4 km/h 4.6 mph /  7.4 km/h 50 % 0 in /  0.0 mm
20:44 69.1 °F /  20.6 °C 50.2 °F /  10.1 °C 30.2 in /  1022.9 hPa East 3.8 mph /  6.1 km/h 3.8 mph /  6.1 km/h 51 % 0 in /  0.0 mm
20:45 60.8 °F /  16.0 °C 50.2 °F /  10.1 °C 30.3 in /  1027.0 hPa Calm   1 mph /  1.6 km/h 68 % 0 in /  0.0 mm
20:49 68.9 °F /  20.5 °C 50 °F /  10.0 °C 30.2 in /  1022.9 hPa ENE 2.3 mph /  3.7 km/h 2.3 mph /  3.7 km/h 51 % 0 in /  0.0 mm
20:54 68.7 °F /  20.4 °C 49.8 °F /  9.9 °C 30.2 in /  1022.9 hPa NE 2.3 mph /  3.7 km/h 2.3 mph /  3.7 km/h 51 % 0 in /  0.0 mm
20:55 60.6 °F /  15.9 °C 50 °F /  10.0 °C 30.3 in /  1026.0 hPa Calm   2 mph /  3.2 km/h 68 % 0 in /  0.0 mm
20:59 68.5 °F /  20.3 °C 50.2 °F /  10.1 °C 30.2 in /  1023.9 hPa ESE 4.6 mph /  7.4 km/h 4.6 mph /  7.4 km/h 52 % 0 in /  0.0 mm
21:04 68.4 °F /  20.2 °C 50 °F /  10.0 °C 30.2 in /  1023.9 hPa ENE 3.1 mph /  5.0 km/h 3.1 mph /  5.0 km/h 52 % 0 in /  0.0 mm
21:05 59.7 °F /  15.4 °C 49.1 °F /  9.5 °C 30.3 in /  1026.0 hPa West 1 mph /  1.6 km/h 2 mph /  3.2 km/h 68 % 0 in /  0.0 mm
21:09 68.2 °F /  20.1 °C 49.8 °F /  9.9 °C 30.2 in /  1023.9 hPa NNE 2.3 mph /  3.7 km/h 2.3 mph /  3.7 km/h 52 % 0 in /  0.0 mm
21:14 68 °F /  20.0 °C 49.6 °F /  9.8 °C 30.2 in /  1022.9 hPa NE 2.4 mph /  3.9 km/h 2.4 mph /  3.9 km/h 52 % 0 in /  0.0 mm
21:15 58.8 °F /  14.9 °C 48.4 °F /  9.1 °C 30.3 in /  1026.0 hPa WSW 2 mph /  3.2 km/h 2 mph /  3.2 km/h 68 % 0 in /  0.0 mm
21:19 67.8 °F /  19.9 °C 50.2 °F /  10.1 °C 30.2 in /  1022.9 hPa NE 2.9 mph /  4.7 km/h 2.9 mph /  4.7 km/h 53 % 0 in /  0.0 mm
21:24 67.5 °F /  19.7 °C 49.6 °F /  9.8 °C 30.2 in /  1022.9 hPa ENE 4.6 mph /  7.4 km/h 4.6 mph /  7.4 km/h 53 % 0 in /  0.0 mm
21:25 58.8 °F /  14.9 °C 48.4 °F /  9.1 °C 30.3 in /  1026.0 hPa SW 3 mph /  4.8 km/h 3 mph /  4.8 km/h 68 % 0 in /  0.0 mm
21:29 67.3 °F /  19.6 °C 49.6 °F /  9.8 °C 30.2 in /  1023.9 hPa NNE 2.3 mph /  3.7 km/h 2.3 mph /  3.7 km/h 53 % 0 in /  0.0 mm
21:34 67.1 °F /  19.5 °C 49.5 °F /  9.7 °C 30.2 in /  1023.9 hPa NE 1.2 mph /  1.9 km/h   53 % 0 in /  0.0 mm
21:35 58.3 °F /  14.6 °C 48.2 °F /  9.0 °C 30.3 in /  1026.0 hPa SW 2 mph /  3.2 km/h 3 mph /  4.8 km/h 69 % 0 in /  0.0 mm
21:39 66.9 °F /  19.4 °C 49.6 °F /  9.8 °C 30.2 in /  1023.9 hPa NNE 2.3 mph /  3.7 km/h 2.3 mph /  3.7 km/h 54 % 0 in /  0.0 mm
21:44 66.9 °F /  19.4 °C 49.6 °F /  9.8 °C 30.3 in /  1024.9 hPa NNW 1.2 mph /  1.9 km/h   54 % 0 in /  0.0 mm
21:45 58.1 °F /  14.5 °C 48.7 °F /  9.3 °C 30.3 in /  1026.0 hPa Calm   3 mph /  4.8 km/h 71 % 0 in /  0.0 mm
21:49 66.7 °F /  19.3 °C 50.2 °F /  10.1 °C 30.3 in /  1024.9 hPa Calm     55 % 0 in /  0.0 mm
21:54 66.4 °F /  19.1 °C 49.6 °F /  9.8 °C 30.3 in /  1024.9 hPa NNE 2.3 mph /  3.7 km/h 2.3 mph /  3.7 km/h 55 % 0 in /  0.0 mm
21:55 58.1 °F /  14.5 °C 49.1 °F /  9.5 °C 30.3 in /  1026.0 hPa Calm     72 % 0 in /  0.0 mm
21:59 66.2 °F /  19.0 °C 49.6 °F /  9.8 °C 30.3 in /  1026.0 hPa NNE 2.3 mph /  3.7 km/h 2.3 mph /  3.7 km/h 55 % 0 in /  0.0 mm
22:04 66 °F /  18.9 °C 50.4 °F /  10.2 °C 30.3 in /  1026.0 hPa Calm     57 % 0 in /  0.0 mm
22:05 58.5 °F /  14.7 °C 49.5 °F /  9.7 °C 30.3 in /  1026.0 hPa Calm   1 mph /  1.6 km/h 72 % 0 in /  0.0 mm
22:09 65.8 °F /  18.8 °C 50.2 °F /  10.1 °C 30.3 in /  1026.0 hPa NNE 2.3 mph /  3.7 km/h 2.3 mph /  3.7 km/h 57 % 0 in /  0.0 mm
22:14 65.7 °F /  18.7 °C 50 °F /  10.0 °C 30.3 in /  1024.9 hPa North 1.2 mph /  1.9 km/h   57 % 0 in /  0.0 mm
22:15 58.5 °F /  14.7 °C 49.5 °F /  9.7 °C 30.3 in /  1026.0 hPa Calm   1 mph /  1.6 km/h 72 % 0 in /  0.0 mm
22:19 65.5 °F /  18.6 °C 50.4 °F /  10.2 °C 30.3 in /  1024.9 hPa Calm     58 % 0 in /  0.0 mm
22:24 65.3 °F /  18.5 °C 50.2 °F /  10.1 °C 30.3 in /  1024.9 hPa Calm     58 % 0 in /  0.0 mm
22:25 58.3 °F /  14.6 °C 49.3 °F /  9.6 °C 30.3 in /  1026.0 hPa Calm     72 % 0 in /  0.0 mm
22:29 65.1 °F /  18.4 °C 50.4 °F /  10.2 °C 30.3 in /  1026.0 hPa North 2.9 mph /  4.7 km/h 2.9 mph /  4.7 km/h 59 % 0 in /  0.0 mm
22:34 64.9 °F /  18.3 °C 50.4 °F /  10.2 °C 30.3 in /  1026.0 hPa NNE 1.2 mph /  1.9 km/h 1.2 mph /  1.9 km/h 59 % 0 in /  0.0 mm
22:35 58.3 °F /  14.6 °C 49.3 °F /  9.6 °C 30.3 in /  1026.0 hPa Calm     72 % 0 in /  0.0 mm
22:39 64.8 °F /  18.2 °C 50.5 °F /  10.3 °C 30.3 in /  1026.0 hPa Calm     60 % 0 in /  0.0 mm
22:44 64.6 °F /  18.1 °C 50.4 °F /  10.2 °C 30.3 in /  1026.0 hPa Calm     60 % 0 in /  0.0 mm
22:45 57.9 °F /  14.4 °C 48.9 °F /  9.4 °C 30.3 in /  1026.0 hPa Calm   2 mph /  3.2 km/h 72 % 0 in /  0.0 mm
22:49 64.4 °F /  18.0 °C 50.2 °F /  10.1 °C 30.3 in /  1026.0 hPa NE 2.3 mph /  3.7 km/h 2.3 mph /  3.7 km/h 60 % 0 in /  0.0 mm
22:54 64.4 °F /  18.0 °C 50.2 °F /  10.1 °C 30.3 in /  1026.0 hPa Calm     60 % 0 in /  0.0 mm
22:55 57 °F /  13.9 °C 48 °F /  8.9 °C 30.3 in /  1026.0 hPa West 1 mph /  1.6 km/h 2 mph /  3.2 km/h 72 % 0 in /  0.0 mm
22:59 64.2 °F /  17.9 °C 50.5 °F /  10.3 °C 30.3 in /  1026.0 hPa NNE 0.9 mph /  1.4 km/h   61 % 0 in /  0.0 mm
23:04 64.2 °F /  17.9 °C 50.5 °F /  10.3 °C 30.3 in /  1026.0 hPa ENE 1.6 mph /  2.6 km/h 1.6 mph /  2.6 km/h 61 % 0 in /  0.0 mm
23:05 56.8 °F /  13.8 °C 48.4 °F /  9.1 °C 30.3 in /  1026.0 hPa Calm   1 mph /  1.6 km/h 73 % 0 in /  0.0 mm
23:09 64 °F /  17.8 °C 50.4 °F /  10.2 °C 30.3 in /  1026.0 hPa Calm     61 % 0 in /  0.0 mm
23:14 63.9 °F /  17.7 °C 50.5 °F /  10.3 °C 30.3 in /  1026.0 hPa NE 1.2 mph /  1.9 km/h   62 % 0 in /  0.0 mm
23:15 57 °F /  13.9 °C 48 °F /  8.9 °C 30.3 in /  1026.0 hPa SW 2 mph /  3.2 km/h 2 mph /  3.2 km/h 72 % 0 in /  0.0 mm
23:19 63.7 °F /  17.6 °C 50.4 °F /  10.2 °C 30.3 in /  1026.0 hPa Calm     62 % 0 in /  0.0 mm
23:24 63.7 °F /  17.6 °C 50.4 °F /  10.2 °C 30.3 in /  1026.0 hPa Calm     62 % 0 in /  0.0 mm
23:25 56.8 °F /  13.8 °C 47.8 °F /  8.8 °C 30.3 in /  1026.0 hPa SW 2 mph /  3.2 km/h 2 mph /  3.2 km/h 72 % 0 in /  0.0 mm
23:29 63.5 °F /  17.5 °C 50.2 °F /  10.1 °C 30.3 in /  1026.0 hPa Calm     62 % 0 in /  0.0 mm
23:34 63.3 °F /  17.4 °C 50.2 °F /  10.1 °C 30.3 in /  1026.0 hPa Calm     62 % 0 in /  0.0 mm
23:35 56.8 °F /  13.8 °C 48.4 °F /  9.1 °C 30.3 in /  1026.0 hPa WSW 2 mph /  3.2 km/h 2 mph /  3.2 km/h 73 % 0 in /  0.0 mm
23:39 63.1 °F /  17.3 °C 50.4 °F /  10.2 °C 30.3 in /  1026.0 hPa Calm     63 % 0 in /  0.0 mm
23:44 63.1 °F /  17.3 °C 50.4 °F /  10.2 °C 30.3 in /  1026.0 hPa Calm     63 % 0 in /  0.0 mm
23:45 57.2 °F /  14.0 °C 48.6 °F /  9.2 °C 30.3 in /  1026.0 hPa WSW 1 mph /  1.6 km/h 2 mph /  3.2 km/h 73 % 0 in /  0.0 mm
23:49 63.1 °F /  17.3 °C 50.4 °F /  10.2 °C 30.3 in /  1026.0 hPa Calm     63 % 0 in /  0.0 mm
23:54 63.1 °F /  17.3 °C 50.4 °F /  10.2 °C 30.3 in /  1026.0 hPa NNE 1.4 mph /  2.3 km/h 1.4 mph /  2.3 km/h 63 % 0 in /  0.0 mm
23:55 57.4 °F /  14.1 °C 48.7 °F /  9.3 °C 30.3 in /  1026.0 hPa WSW 1 mph /  1.6 km/h 2 mph /  3.2 km/h 73 % 0 in /  0.0 mm
23:59 63 °F /  17.2 °C 50.2 °F /  10.1 °C 30.3 in /  1026.0 hPa NNW 1.2 mph /  1.9 km/h   63 % 0 in /  0.0 mm
Meteo Sesrovires
Elogis d' Weather Underground - 3.5 mb

Guio original per  Jim McMurry - jmcmurry@mwt.net Adaptat per a la plantilla per  Wim van der Kuil - Leuven-Template.eu

Trobareu la nostra informacio del temps tambe a:

Weather Underground

AWEKAS